Time;durP1;ratioP1;P1;durP2;ratioP2;P2;SDS_P1;SDS_P2;PMS_P1;PMS_P2;Temp;Humidity;BMP_temperature;BMP_pressure;BME280_temperature;BME280_humidity;BME280_pressure;Samples;Min_cycle;Max_cycle;Signal;HPM_P1;HPM_P2
2024/01/16 00:00:12;;;;;;;14.43;5.63;;;-2.90;99.90;;;;;;5030184;28;20049;-52
2024/01/16 00:02:38;;;;;;;14.70;7.55;;;-3.00;99.90;;;;;;5029940;28;20090;-46
2024/01/16 00:05:04;;;;;;;12.57;6.00;;;-3.00;99.90;;;;;;5030094;28;20537;-54
2024/01/16 00:07:30;;;;;;;13.13;6.55;;;-3.00;99.90;;;;;;5029850;28;20037;-46
2024/01/16 00:09:55;;;;;;;12.23;6.57;;;-3.00;99.90;;;;;;5029956;28;20041;-50
2024/01/16 00:12:21;;;;;;;12.90;6.80;;;-2.90;99.90;;;;;;5029781;28;20389;-49
2024/01/16 00:14:46;;;;;;;17.40;7.18;;;-2.90;99.90;;;;;;5030061;28;20038;-49
2024/01/16 00:17:12;;;;;;;10.52;6.05;;;-2.90;99.90;;;;;;5029900;28;20033;-52
2024/01/16 00:19:38;;;;;;;14.27;6.68;;;-3.10;99.90;;;;;;5029764;28;20030;-49
2024/01/16 00:22:04;;;;;;;14.13;6.40;;;-3.20;99.90;;;;;;5028510;28;20448;-46
2024/01/16 00:24:30;;;;;;;18.88;7.50;;;-3.20;99.90;;;;;;5029787;28;20441;-47
2024/01/16 00:26:56;;;;;;;17.38;7.93;;;-3.30;99.90;;;;;;5030044;28;20073;-51
2024/01/16 00:29:22;;;;;;;18.08;6.88;;;-3.40;99.90;;;;;;5029949;28;20021;-50
2024/01/16 00:31:47;;;;;;;10.90;5.78;;;-3.50;99.90;;;;;;5029917;28;20025;-52
2024/01/16 00:34:13;;;;;;;16.25;6.40;;;-3.50;99.90;;;;;;5029960;28;20069;-50
2024/01/16 00:36:39;;;;;;;13.32;5.63;;;-3.50;99.90;;;;;;5029856;28;20113;-50
2024/01/16 00:39:05;;;;;;;11.50;6.18;;;-3.50;99.90;;;;;;5029970;28;20040;-49
2024/01/16 00:41:30;;;;;;;10.85;5.88;;;-3.50;99.90;;;;;;5029821;28;20101;-50
2024/01/16 00:43:56;;;;;;;15.63;6.47;;;-3.50;99.90;;;;;;5032980;28;20128;-50
2024/01/16 00:46:22;;;;;;;11.93;5.82;;;-3.50;99.90;;;;;;5032588;28;20022;-45
2024/01/16 00:48:48;;;;;;;11.73;5.55;;;-3.50;99.90;;;;;;5034047;28;20487;-46
2024/01/16 00:51:14;;;;;;;13.23;5.72;;;-3.50;99.90;;;;;;5033897;28;20022;-46
2024/01/16 00:53:43;;;;;;;11.18;5.82;;;-3.50;99.90;;;;;;5033648;28;20037;-48
2024/01/16 00:56:09;;;;;;;;;;;-3.50;99.90;;;;;;5034147;28;20643;-45
2024/01/16 00:58:35;;;;;;;9.65;5.13;;;-3.60;99.90;;;;;;5033583;28;19905;-46
2024/01/16 01:01:01;;;;;;;12.73;5.25;;;-3.70;99.90;;;;;;5033316;28;20041;-45
2024/01/16 01:03:26;;;;;;;13.02;5.55;;;-3.70;99.90;;;;;;5033717;28;20099;-45
2024/01/16 01:05:52;;;;;;;10.10;5.50;;;-3.80;99.90;;;;;;5033353;28;20392;-45
2024/01/16 01:08:19;;;;;;;13.30;5.28;;;-3.70;99.90;;;;;;5033553;28;20014;-45
2024/01/16 01:10:44;;;;;;;13.43;5.72;;;-3.70;99.90;;;;;;5033374;28;20036;-45
2024/01/16 01:13:10;;;;;;;12.02;4.93;;;-3.80;99.90;;;;;;5033310;28;20021;-47
2024/01/16 01:15:36;;;;;;;11.80;4.90;;;-3.80;99.90;;;;;;5033221;28;20044;-46
2024/01/16 01:18:01;;;;;;;11.25;5.38;;;-3.90;99.90;;;;;;5033171;28;20143;-48
2024/01/16 01:20:27;;;;;;;10.75;4.80;;;-3.90;99.90;;;;;;5033088;28;20049;-46
2024/01/16 01:22:53;;;;;;;10.15;4.85;;;-4.00;99.90;;;;;;5031704;28;20021;-46
2024/01/16 01:25:19;;;;;;;12.57;5.60;;;-4.00;99.90;;;;;;5032910;28;20021;-47
2024/01/16 01:27:44;;;;;;;13.10;5.35;;;-4.00;99.90;;;;;;5033077;28;20056;-47
2024/01/16 01:30:11;;;;;;;8.98;4.80;;;-3.90;99.90;;;;;;5032859;28;20018;-46
2024/01/16 01:32:37;;;;;;;10.30;5.18;;;-3.90;99.90;;;;;;5033038;28;20032;-52
2024/01/16 01:35:03;;;;;;;12.38;5.18;;;-3.80;99.90;;;;;;5032782;28;20384;-47
2024/01/16 01:37:29;;;;;;;10.27;5.68;;;-3.80;99.90;;;;;;5032754;28;20148;-48
2024/01/16 01:39:55;;;;;;;8.90;4.88;;;-3.90;99.90;;;;;;5032636;28;20033;-52
2024/01/16 01:42:20;;;;;;;11.27;5.53;;;-3.90;99.90;;;;;;5032646;28;20083;-48
2024/01/16 01:44:46;;;;;;;13.73;6.03;;;-3.80;99.90;;;;;;5032444;28;20033;-49
2024/01/16 01:47:11;;;;;;;11.15;4.82;;;-3.90;99.90;;;;;;5032580;28;20014;-50
2024/01/16 01:49:38;;;;;;;11.75;5.40;;;-3.90;99.90;;;;;;5032508;28;20155;-48
2024/01/16 01:52:04;;;;;;;15.82;5.97;;;-3.90;99.90;;;;;;5032273;28;20499;-48
2024/01/16 01:54:32;;;;;;;11.13;5.18;;;-3.90;99.90;;;;;;5032421;28;20040;-53
2024/01/16 01:56:58;;;;;;;10.25;4.88;;;-3.90;99.90;;;;;;5032253;28;20527;-48
2024/01/16 01:59:25;;;;;;;9.88;5.63;;;-3.90;99.90;;;;;;5032241;28;20105;-47
2024/01/16 02:01:52;;;;;;;9.80;5.78;;;-3.90;99.90;;;;;;5030942;28;20069;-51
2024/01/16 02:04:19;;;;;;;8.88;4.60;;;-3.70;99.90;;;;;;5032173;28;20017;-55
2024/01/16 02:06:45;;;;;;;11.15;5.50;;;-3.70;99.90;;;;;;5032189;28;20461;-51
2024/01/16 02:09:13;;;;;;;12.65;6.10;;;-3.70;99.90;;;;;;5031930;28;20029;-48
2024/01/16 02:11:39;;;;;;;9.52;5.55;;;-3.60;99.90;;;;;;5032119;28;20029;-52
2024/01/16 02:14:05;;;;;;;9.85;5.35;;;-3.60;99.90;;;;;;5032001;28;20065;-53
2024/01/16 02:16:38;;;;;;;14.65;5.82;;;-3.60;99.90;;;;;;5032028;28;20033;-54
2024/01/16 02:19:04;;;;;;;14.30;5.90;;;-3.70;99.90;;;;;;5032094;28;20104;-50
2024/01/16 02:21:44;;;;;;;11.80;5.32;;;-3.80;99.90;;;;;;5031650;28;20032;-57
2024/01/16 02:24:11;;;;;;;11.25;5.05;;;-3.90;99.90;;;;;;5031938;28;20116;-47
2024/01/16 02:26:37;;;;;;;9.90;5.78;;;-4.00;99.90;;;;;;5031887;28;20030;-53
2024/01/16 02:29:04;;;;;;;11.38;5.78;;;-3.90;99.90;;;;;;5032148;28;20029;-54
2024/01/16 02:31:33;;;;;;;10.68;5.45;;;-3.90;99.90;;;;;;5031731;28;20041;-46
2024/01/16 02:34:00;;;;;;;11.80;5.05;;;-3.90;99.90;;;;;;5031787;28;20128;-46
2024/01/16 02:36:26;;;;;;;12.57;5.30;;;-3.90;99.90;;;;;;5031571;28;20028;-50
2024/01/16 02:38:52;;;;;;;10.90;5.90;;;-3.90;99.90;;;;;;5031689;28;20040;-54
2024/01/16 02:41:18;;;;;;;10.13;5.00;;;-3.70;99.90;;;;;;5031758;28;20384;-48
2024/01/16 02:43:44;;;;;;;12.90;6.53;;;-3.70;99.90;;;;;;5031823;28;20048;-47
2024/01/16 02:46:10;;;;;;;13.85;6.57;;;-3.70;99.90;;;;;;5031618;28;20461;-49
2024/01/16 02:48:37;;;;;;;7.85;4.97;;;-3.80;99.90;;;;;;5031521;28;20033;-49
2024/01/16 02:51:03;;;;;;;14.50;5.40;;;-3.80;99.90;;;;;;5031570;28;20026;-50
2024/01/16 02:53:29;;;;;;;12.27;5.30;;;-4.00;99.90;;;;;;5030057;28;20033;-46
2024/01/16 02:55:58;;;;;;;12.25;5.72;;;-4.00;99.90;;;;;;5031220;28;20014;-46
2024/01/16 02:58:24;;;;;;;18.13;6.47;;;-4.10;99.90;;;;;;5031709;28;20112;-46
2024/01/16 03:00:50;;;;;;;11.32;5.43;;;-4.10;99.90;;;;;;5031200;28;20409;-46
2024/01/16 03:03:16;;;;;;;16.20;6.95;;;-4.20;99.90;;;;;;5031252;28;20069;-46
2024/01/16 03:05:42;;;;;;;14.50;6.15;;;-4.20;99.90;;;;;;5030642;28;20480;-53
2024/01/16 03:08:07;;;;;;;9.77;4.95;;;-4.20;99.90;;;;;;5030895;28;20017;-46
2024/01/16 03:10:33;;;;;;;16.17;4.93;;;-4.30;99.90;;;;;;5031223;28;20036;-46
2024/01/16 03:12:59;;;;;;;8.93;5.05;;;-4.40;99.90;;;;;;5030836;28;20025;-48
2024/01/16 03:15:24;;;;;;;12.43;4.70;;;-4.50;99.90;;;;;;5031060;28;20397;-49
2024/01/16 03:17:50;;;;;;;10.48;5.55;;;-4.50;99.90;;;;;;5030764;28;20104;-49
2024/01/16 03:20:17;;;;;;;10.77;5.75;;;-4.50;99.90;;;;;;5030804;28;20038;-49
2024/01/16 03:22:44;;;;;;;12.52;5.72;;;-4.50;99.90;;;;;;5030536;28;20133;-49
2024/01/16 03:25:13;;;;;;;8.25;4.72;;;-4.50;99.90;;;;;;5030828;28;20021;-52
2024/01/16 03:27:38;;;;;;;9.57;5.23;;;-4.40;99.90;;;;;;5030522;28;20022;-52
2024/01/16 03:30:05;;;;;;;13.05;5.75;;;-4.20;99.90;;;;;;5028846;28;20072;-49
2024/01/16 03:32:30;;;;;;;12.23;5.97;;;-4.20;99.90;;;;;;5029097;28;20144;-47
2024/01/16 03:34:56;;;;;;;14.35;5.78;;;-4.20;99.90;;;;;;5022647;28;20163;-46
2024/01/16 03:37:21;;;;;;;12.60;6.57;;;-4.20;99.90;;;;;;5045504;28;20496;-48
2024/01/16 03:39:47;;;;;;;12.35;4.35;;;-4.20;99.90;;;;;;5050006;28;20419;-49
2024/01/16 03:42:13;;;;;;;12.23;6.55;;;-4.20;99.90;;;;;;5050576;28;20077;-46
2024/01/16 03:44:40;;;;;;;10.80;5.95;;;-4.10;99.90;;;;;;5050488;28;20037;-57
2024/01/16 03:47:06;;;;;;;11.32;6.25;;;-4.10;99.90;;;;;;5050306;28;20460;-47
2024/01/16 03:49:32;;;;;;;12.75;5.68;;;-4.20;99.90;;;;;;5050188;28;20056;-52
2024/01/16 03:51:58;;;;;;;11.50;5.75;;;-4.20;99.90;;;;;;5050051;28;20110;-50
2024/01/16 03:54:23;;;;;;;13.50;5.65;;;-4.00;99.90;;;;;;5050315;28;20033;-53
2024/01/16 03:56:49;;;;;;;9.43;5.95;;;-4.00;99.90;;;;;;5050142;28;20043;-51
2024/01/16 03:59:15;;;;;;;11.02;5.32;;;-4.10;99.90;;;;;;5050594;28;20025;-48
2024/01/16 04:01:42;;;;;;;12.45;5.57;;;-4.10;99.90;;;;;;5049995;28;20060;-48
2024/01/16 04:04:07;;;;;;;8.45;4.97;;;-4.10;99.90;;;;;;5048646;28;20028;-49
2024/01/16 04:06:33;;;;;;;16.10;6.15;;;-4.00;99.90;;;;;;5050076;28;20041;-48
2024/01/16 04:08:59;;;;;;;12.15;5.93;;;-4.00;99.90;;;;;;5049778;28;20029;-54
2024/01/16 04:11:24;;;;;;;11.85;5.40;;;-4.00;99.90;;;;;;5049800;28;20027;-47
2024/01/16 04:13:50;;;;;;;10.35;5.20;;;-4.00;99.90;;;;;;5049685;28;20427;-48
2024/01/16 04:16:15;;;;;;;11.77;5.60;;;-4.00;99.90;;;;;;5049787;28;20391;-52
2024/01/16 04:18:43;;;;;;;11.70;6.28;;;-4.00;99.90;;;;;;5049127;28;20029;-50
2024/01/16 04:21:09;;;;;;;15.40;5.80;;;-4.10;99.90;;;;;;5048503;28;20105;-50
2024/01/16 04:23:35;;;;;;;11.55;6.03;;;-4.00;99.90;;;;;;5050019;28;20067;-46
2024/01/16 04:26:00;;;;;;;12.27;6.07;;;-4.00;99.90;;;;;;5049632;28;20134;-55
2024/01/16 04:28:26;;;;;;;14.77;5.63;;;-4.00;99.90;;;;;;5049884;28;20025;-46
2024/01/16 04:30:52;;;;;;;12.45;6.07;;;-4.00;99.90;;;;;;5049859;28;20051;-48
2024/01/16 04:33:17;;;;;;;11.95;5.78;;;-3.90;99.90;;;;;;5049504;28;20113;-46
2024/01/16 04:35:43;;;;;;;11.25;5.93;;;-4.00;99.90;;;;;;5049688;28;20116;-49
2024/01/16 04:38:09;;;;;;;11.15;5.38;;;-4.00;99.90;;;;;;5049618;28;20021;-49
2024/01/16 04:40:34;;;;;;;14.05;6.25;;;-3.90;99.90;;;;;;5049648;28;20032;-60
2024/01/16 04:43:01;;;;;;;10.65;5.93;;;-4.00;99.90;;;;;;5049504;28;20028;-54
2024/01/16 04:45:26;;;;;;;8.65;4.88;;;-4.00;99.90;;;;;;5049775;28;20021;-57
2024/01/16 04:47:52;;;;;;;11.38;5.60;;;-4.00;99.90;;;;;;5049590;28;20031;-51
2024/01/16 04:50:18;;;;;;;10.02;5.82;;;-4.10;99.90;;;;;;5049542;28;20032;-49
2024/01/16 04:52:44;;;;;;;10.38;5.50;;;-4.10;99.90;;;;;;5049754;28;20135;-53
2024/01/16 04:55:10;;;;;;;7.85;4.13;;;-4.10;99.90;;;;;;5049604;28;20064;-50
2024/01/16 04:57:36;;;;;;;8.27;4.78;;;-4.10;99.90;;;;;;5049626;28;20037;-51
2024/01/16 05:00:06;;;;;;;18.13;5.72;;;-4.10;99.90;;;;;;5049339;28;20131;-47
2024/01/16 05:02:33;;;;;;;12.23;5.50;;;-4.10;99.90;;;;;;5049440;28;20033;-50
2024/01/16 05:04:59;;;;;;;8.50;4.93;;;-4.10;99.90;;;;;;5049733;28;20029;-49
2024/01/16 05:07:24;;;;;;;14.20;6.13;;;-4.10;99.90;;;;;;5049346;28;20036;-50
2024/01/16 05:09:50;;;;;;;11.93;5.68;;;-4.10;99.90;;;;;;5049350;28;20036;-57
2024/01/16 05:12:16;;;;;;;10.80;5.28;;;-4.10;99.90;;;;;;5049239;28;20025;-50
2024/01/16 05:14:41;;;;;;;11.43;5.65;;;-4.20;99.90;;;;;;5049154;28;20033;-48
2024/01/16 05:17:08;;;;;;;8.98;5.72;;;-4.20;99.90;;;;;;5049104;28;20099;-49
2024/01/16 05:19:33;;;;;;;13.88;5.95;;;-4.20;99.90;;;;;;5049326;28;20043;-51
2024/01/16 05:21:59;;;;;;;9.48;4.82;;;-4.10;99.90;;;;;;5049250;28;20025;-46
2024/01/16 05:24:25;;;;;;;12.77;5.40;;;-4.10;99.90;;;;;;5049020;28;20037;-48
2024/01/16 05:26:50;;;;;;;11.80;5.97;;;-4.10;99.90;;;;;;5049375;28;20021;-46
2024/01/16 05:29:18;;;;;;;14.98;5.80;;;-4.20;99.90;;;;;;5050932;28;20075;-50
2024/01/16 05:31:44;;;;;;;11.43;5.10;;;-4.30;99.90;;;;;;5052813;28;20417;-48
2024/01/16 05:34:10;;;;;;;8.18;4.63;;;-4.30;99.90;;;;;;5052960;28;20094;-51
2024/01/16 05:36:36;;;;;;;15.45;5.53;;;-4.40;99.90;;;;;;5053030;28;20083;-49
2024/01/16 05:39:02;;;;;;;9.77;6.03;;;-4.40;99.90;;;;;;5052887;28;20033;-50
2024/01/16 05:41:33;;;;;;;12.70;5.60;;;-4.40;99.90;;;;;;5051872;28;20086;-46
2024/01/16 05:43:58;;;;;;;14.55;4.97;;;-4.40;99.90;;;;;;5052685;28;20029;-52
2024/01/16 05:46:24;;;;;;;12.48;5.95;;;-4.30;99.90;;;;;;5052469;28;20032;-51
2024/01/16 05:48:49;;;;;;;10.38;4.78;;;-4.40;99.90;;;;;;5052606;28;20056;-51
2024/01/16 05:51:15;;;;;;;13.27;5.43;;;-4.40;99.90;;;;;;5052552;28;20025;-54
2024/01/16 05:53:41;;;;;;;12.23;5.72;;;-4.40;99.90;;;;;;5052613;28;20041;-55
2024/01/16 05:56:07;;;;;;;11.63;5.72;;;-4.40;99.90;;;;;;5052537;28;20021;-45
2024/01/16 05:58:38;;;;;;;14.82;6.45;;;-4.50;99.90;;;;;;5052296;28;20495;-51
2024/01/16 06:01:04;;;;;;;9.10;4.72;;;-4.50;99.90;;;;;;5052133;28;20063;-46
2024/01/16 06:03:30;;;;;;;9.88;4.50;;;-4.50;99.90;;;;;;5052426;28;20107;-54
2024/01/16 06:05:56;;;;;;;10.25;4.82;;;-4.50;99.90;;;;;;5052306;28;20116;-48
2024/01/16 06:08:21;;;;;;;10.77;4.60;;;-4.60;99.90;;;;;;5052223;28;20114;-50
2024/01/16 06:10:47;;;;;;;8.10;4.63;;;-4.60;99.90;;;;;;5052252;28;20029;-48
2024/01/16 06:13:13;;;;;;;8.35;4.03;;;-4.70;99.90;;;;;;5052076;28;20390;-47
2024/01/16 06:15:38;;;;;;;7.47;3.55;;;-4.70;99.90;;;;;;5051996;28;20092;-47
2024/01/16 06:18:04;;;;;;;15.45;4.45;;;-4.80;99.90;;;;;;5052076;28;20021;-56
2024/01/16 06:20:30;;;;;;;10.68;4.65;;;-4.80;99.90;;;;;;5051882;28;20063;-47
2024/01/16 06:22:56;;;;;;;7.50;4.68;;;-4.70;99.90;;;;;;5051993;28;20104;-46
2024/01/16 06:25:22;;;;;;;10.48;4.05;;;-4.80;99.90;;;;;;5051991;28;20120;-46
2024/01/16 06:27:47;;;;;;;8.95;5.20;;;-4.90;99.90;;;;;;5051695;28;20036;-51
2024/01/16 06:30:13;;;;;;;8.63;4.10;;;-4.90;99.90;;;;;;5051821;28;20031;-48
2024/01/16 06:32:39;;;;;;;6.80;4.43;;;-5.00;99.90;;;;;;5051811;28;20017;-50
2024/01/16 06:35:05;;;;;;;9.60;4.15;;;-5.00;99.90;;;;;;5051592;28;20111;-50
2024/01/16 06:37:31;;;;;;;10.30;5.25;;;-5.00;99.90;;;;;;5051545;28;20029;-49
2024/01/16 06:39:57;;;;;;;7.50;3.67;;;-5.00;99.90;;;;;;5050924;28;20033;-48
2024/01/16 06:42:22;;;;;;;18.17;5.47;;;-5.00;99.90;;;;;;5051361;28;20403;-51
2024/01/16 06:44:48;;;;;;;8.82;5.03;;;-5.00;99.90;;;;;;5051146;28;20118;-48
2024/01/16 06:47:14;;;;;;;10.32;5.22;;;-4.90;99.90;;;;;;5051850;28;20092;-50
2024/01/16 06:49:40;;;;;;;8.68;4.75;;;-5.00;99.90;;;;;;5051395;28;20385;-50
2024/01/16 06:52:08;;;;;;;9.40;4.78;;;-5.00;99.90;;;;;;5051187;28;20021;-49
2024/01/16 06:54:33;;;;;;;7.90;4.60;;;-5.10;99.90;;;;;;5051306;28;20037;-53
2024/01/16 06:56:59;;;;;;;12.70;4.68;;;-5.20;99.90;;;;;;5051222;28;20032;-48
2024/01/16 06:59:24;;;;;;;10.82;5.80;;;-5.30;99.90;;;;;;5051310;28;20044;-51
2024/01/16 07:01:51;;;;;;;13.77;5.43;;;-5.30;99.90;;;;;;5051110;28;20068;-48
2024/01/16 07:04:17;;;;;;;11.80;4.85;;;-5.30;99.90;;;;;;5051457;28;20040;-50
2024/01/16 07:06:43;;;;;;;9.10;5.00;;;-5.40;99.90;;;;;;5051119;28;20025;-49
2024/01/16 07:09:12;;;;;;;9.15;5.63;;;-5.30;99.90;;;;;;5051369;28;20056;-46
2024/01/16 07:11:42;;;;;;;8.82;4.57;;;-5.30;99.90;;;;;;5051178;28;20112;-48
2024/01/16 07:14:09;;;;;;;13.05;5.63;;;-5.40;99.90;;;;;;5050945;28;20075;-52
2024/01/16 07:16:35;;;;;;;11.50;5.63;;;-5.30;99.90;;;;;;5051293;28;20135;-47
2024/01/16 07:19:01;;;;;;;14.23;5.45;;;-5.20;99.90;;;;;;5051132;28;20021;-52
2024/01/16 07:21:28;;;;;;;16.10;5.88;;;-5.10;99.90;;;;;;5050784;28;20464;-52
2024/01/16 07:23:54;;;;;;;17.52;5.82;;;-5.10;99.90;;;;;;5050653;28;20032;-48
2024/01/16 07:26:20;;;;;;;9.50;4.20;;;-5.10;99.90;;;;;;5050797;28;20053;-45
2024/01/16 07:28:47;;;;;;;9.13;4.00;;;-5.10;99.90;;;;;;5051092;28;20060;-52
2024/01/16 07:31:14;;;;;;;8.70;4.20;;;-5.10;99.90;;;;;;5050880;28;20021;-50
2024/01/16 07:33:39;;;;;;;6.85;4.13;;;-5.10;99.90;;;;;;5049227;28;20480;-55
2024/01/16 07:36:07;;;;;;;8.70;4.88;;;-5.10;99.90;;;;;;5050745;28;20032;-49
2024/01/16 07:38:33;;;;;;;10.07;4.47;;;-5.10;99.90;;;;;;5050679;28;20052;-47
2024/01/16 07:40:59;;;;;;;12.20;6.38;;;-5.10;99.90;;;;;;5049166;28;20087;-50
2024/01/16 07:43:25;;;;;;;11.00;4.82;;;-5.10;99.90;;;;;;5049342;28;20028;-49
2024/01/16 07:45:50;;;;;;;12.15;4.90;;;-5.10;99.90;;;;;;5043670;28;20099;-52
2024/01/16 07:48:16;;;;;;;10.38;4.63;;;-5.10;99.90;;;;;;5034116;28;20044;-50
2024/01/16 07:50:42;;;;;;;10.23;5.65;;;-5.00;99.90;;;;;;5030316;28;20105;-46
2024/01/16 07:53:07;;;;;;;10.38;5.95;;;-5.00;99.90;;;;;;5029924;28;20040;-46
2024/01/16 07:55:33;;;;;;;15.18;5.68;;;-5.00;99.90;;;;;;5028777;28;20029;-47
2024/01/16 07:57:59;;;;;;;9.20;5.05;;;-5.00;99.90;;;;;;5030359;28;20025;-48
2024/01/16 08:00:24;;;;;;;12.43;4.68;;;-5.00;99.90;;;;;;5028720;28;20021;-49
2024/01/16 08:02:50;;;;;;;8.40;4.40;;;-4.90;99.90;;;;;;5030122;28;20037;-48
2024/01/16 08:05:16;;;;;;;10.70;4.97;;;-4.90;99.90;;;;;;5030000;28;20021;-50
2024/01/16 08:07:44;;;;;;;8.20;3.70;;;-4.90;99.90;;;;;;5030279;28;20040;-45
2024/01/16 08:10:10;;;;;;;14.07;4.93;;;-5.00;99.90;;;;;;5029929;28;20037;-47
2024/01/16 08:12:37;;;;;;;10.48;5.35;;;-4.90;99.90;;;;;;5029555;28;20060;-47
2024/01/16 08:15:03;;;;;;;10.10;4.90;;;-4.90;99.90;;;;;;5030057;28;20396;-51
2024/01/16 08:17:29;;;;;;;7.15;4.35;;;-4.90;99.90;;;;;;5029371;28;20130;-51
2024/01/16 08:19:54;;;;;;;12.48;5.30;;;-4.90;99.90;;;;;;5030187;28;20448;-46
2024/01/16 08:22:20;;;;;;;12.98;5.07;;;-5.00;99.90;;;;;;5029797;28;20361;-45
2024/01/16 08:24:45;;;;;;;9.02;4.03;;;-5.10;99.90;;;;;;5029381;28;20025;-48
2024/01/16 08:27:12;;;;;;;15.13;5.57;;;-5.20;99.90;;;;;;5029554;28;20434;-44
2024/01/16 08:29:38;;;;;;;7.18;3.70;;;-5.20;99.90;;;;;;5029668;28;20025;-44
2024/01/16 08:32:04;;;;;;;5.82;3.63;;;-5.30;99.90;;;;;;5029472;28;20031;-45
2024/01/16 08:34:29;;;;;;;8.52;4.88;;;-5.20;99.90;;;;;;5029731;28;20048;-50
2024/01/16 08:36:56;;;;;;;10.98;5.25;;;-5.10;99.90;;;;;;5029897;28;20025;-44
2024/01/16 08:39:24;;;;;;;8.75;4.32;;;-5.00;99.90;;;;;;5029500;28;20077;-54
2024/01/16 08:41:50;;;;;;;9.10;6.00;;;-4.90;99.90;;;;;;5029694;28;20045;-45
2024/01/16 08:44:15;;;;;;;11.90;5.03;;;-4.70;99.90;;;;;;5041018;28;20033;-45
2024/01/16 08:46:41;;;;;;;16.98;4.22;;;-4.50;99.90;;;;;;5049730;28;20071;-45
2024/01/16 08:49:07;;;;;;;11.07;4.50;;;-4.10;99.90;;;;;;5049864;28;20486;-45
2024/01/16 08:51:32;;;;;;;11.10;5.35;;;-2.60;99.90;;;;;;5049513;28;20043;-50
2024/01/16 08:53:58;;;;;;;9.38;5.65;;;-0.70;99.90;;;;;;5049493;28;20033;-45
2024/01/16 08:56:23;;;;;;;11.63;6.28;;;1.30;99.90;;;;;;5049619;28;20025;-45
2024/01/16 08:58:49;;;;;;;10.75;5.78;;;3.40;99.90;;;;;;5036988;28;20424;-44
2024/01/16 09:01:15;;;;;;;9.68;4.82;;;4.80;99.90;;;;;;5028293;28;20492;-44
2024/01/16 09:03:43;;;;;;;11.80;5.43;;;6.00;99.90;;;;;;5028901;28;20387;-45
2024/01/16 09:06:10;;;;;;;9.05;5.03;;;6.90;99.90;;;;;;5034092;28;20021;-44
2024/01/16 09:08:36;;;;;;;9.90;4.45;;;7.60;99.10;;;;;;5033351;28;20100;-45
2024/01/16 09:11:01;;;;;;;16.23;5.40;;;8.30;98.60;;;;;;5032691;28;20490;-45
2024/01/16 09:13:27;;;;;;;11.13;5.10;;;8.80;97.90;;;;;;5034405;28;20106;-54
2024/01/16 09:15:52;;;;;;;8.80;4.85;;;8.10;95.20;;;;;;5033004;28;20362;-46
2024/01/16 09:18:18;;;;;;;12.15;5.13;;;6.70;93.60;;;;;;5031327;28;20017;-46
2024/01/16 09:20:44;;;;;;;11.55;5.93;;;5.20;95.30;;;;;;5031286;28;20036;-45
2024/01/16 09:23:10;;;;;;;8.90;5.05;;;3.90;97.50;;;;;;5020941;28;20041;-47
2024/01/16 09:25:36;;;;;;;12.77;6.00;;;2.70;97.60;;;;;;5031279;28;20025;-45
2024/01/16 09:28:02;;;;;;;16.77;6.15;;;1.80;99.90;;;;;;5031380;28;20014;-45
2024/01/16 09:30:28;;;;;;;13.77;6.30;;;1.10;99.90;;;;;;5033362;28;20474;-45
2024/01/16 09:32:53;;;;;;;11.70;5.68;;;0.50;99.90;;;;;;5033230;28;20512;-47
2024/01/16 09:35:19;;;;;;;13.90;6.80;;;0.00;99.90;;;;;;5032537;28;20523;-46
2024/01/16 09:37:45;;;;;;;12.30;5.93;;;-0.30;99.90;;;;;;5029072;28;20476;-47
2024/01/16 09:40:11;;;;;;;12.32;6.72;;;-0.60;99.90;;;;;;5030067;28;20041;-45
2024/01/16 09:42:37;;;;;;;15.18;6.40;;;-0.70;99.90;;;;;;5033222;28;20029;-44
2024/01/16 09:45:03;;;;;;;12.25;6.03;;;-0.80;99.90;;;;;;5040310;28;20035;-47
2024/01/16 09:47:32;;;;;;;13.27;5.70;;;-0.90;99.90;;;;;;5040134;28;20342;-48
2024/01/16 09:50:00;;;;;;;13.35;4.95;;;-0.90;99.90;;;;;;5032455;28;20539;-46
2024/01/16 09:52:26;;;;;;;14.18;5.60;;;-1.00;99.90;;;;;;5026998;28;20030;-45
2024/01/16 09:54:52;;;;;;;13.85;5.82;;;-1.10;99.90;;;;;;5031369;28;20114;-58
2024/01/16 09:57:22;;;;;;;9.27;5.85;;;-1.10;99.90;;;;;;5031764;28;20021;-50
2024/01/16 09:59:48;;;;;;;11.98;5.38;;;-1.10;99.90;;;;;;5032502;28;20036;-54
2024/01/16 10:02:14;;;;;;;12.93;6.53;;;-1.10;99.90;;;;;;5032668;28;20037;-48
2024/01/16 10:04:41;;;;;;;9.32;5.35;;;-1.00;99.90;;;;;;5031061;28;20032;-49
2024/01/16 10:07:09;;;;;;;10.48;5.72;;;-0.10;99.90;;;;;;5032607;28;20029;-52
2024/01/16 10:09:35;;;;;;;11.10;4.97;;;2.00;99.90;;;;;;5032388;28;20032;-50
2024/01/16 10:12:02;;;;;;;8.88;4.13;;;4.60;99.90;;;;;;5031660;28;20022;-55
2024/01/16 10:14:29;;;;;;;8.63;3.70;;;7.30;99.90;;;;;;5031369;28;20034;-52
2024/01/16 10:16:57;;;;;;;12.48;4.22;;;9.70;98.70;;;;;;5031949;28;20305;-53
2024/01/16 10:19:23;;;;;;;9.05;4.22;;;11.50;95.70;;;;;;5061756;28;20397;-53
2024/01/16 10:21:50;;;;;;;9.18;4.35;;;12.80;93.70;;;;;;5030970;28;20472;-52
2024/01/16 10:24:16;;;;;;;7.85;4.13;;;14.00;90.90;;;;;;5032587;28;20025;-47
2024/01/16 10:26:42;;;;;;;11.70;5.05;;;14.70;86.60;;;;;;5032388;28;20117;-49
2024/01/16 10:29:09;;;;;;;10.27;5.22;;;15.60;83.80;;;;;;5035485;28;20036;-51
2024/01/16 10:31:35;;;;;;;10.27;5.47;;;16.00;77.20;;;;;;5028634;28;20473;-46
2024/01/16 10:34:00;;;;;;;9.15;5.63;;;16.40;78.70;;;;;;5033058;28;20064;-49
2024/01/16 10:36:26;;;;;;;12.40;6.07;;;16.90;75.60;;;;;;5031279;28;20037;-51
2024/01/16 10:38:57;;;;;;;11.25;6.07;;;16.70;76.00;;;;;;5032042;28;20408;-51
2024/01/16 10:41:27;;;;;;;9.13;5.10;;;15.60;73.20;;;;;;5031959;28;20025;-55
2024/01/16 10:44:10;;;;;;;8.93;5.95;;;13.90;73.80;;;;;;5039966;28;20053;-54
2024/01/16 10:46:39;;;;;;;11.02;6.75;;;12.20;76.20;;;;;;5052025;28;20033;-48
2024/01/16 10:49:05;;;;;;;12.93;6.60;;;11.50;77.10;;;;;;5052231;28;20087;-55
2024/01/16 10:51:31;;;;;;;9.15;5.47;;;12.40;78.70;;;;;;5052004;28;20024;-51
2024/01/16 10:54:05;;;;;;;11.93;6.47;;;14.00;77.20;;;;;;5051920;28;20037;-51
2024/01/16 10:56:32;;;;;;;10.55;6.30;;;15.80;72.10;;;;;;5051721;28;20251;-48
2024/01/16 10:59:16;;;;;;;5.43;3.25;;;16.90;68.90;;;;;;5051836;28;20093;-45
2024/01/16 11:01:45;;;;;;;6.05;3.05;;;17.80;65.60;;;;;;5046246;28;20370;-53
2024/01/16 11:04:12;;;;;;;6.35;2.78;;;17.70;60.90;;;;;;5051313;28;20036;-50
2024/01/16 11:06:39;;;;;;;6.05;3.20;;;18.40;64.20;;;;;;5051414;28;20119;-57
2024/01/16 11:09:06;;;;;;;6.00;2.88;;;18.10;57.70;;;;;;5051173;28;20024;-57
2024/01/16 11:11:34;;;;;;;6.15;2.28;;;18.00;59.30;;;;;;5051383;28;20052;-50
2024/01/16 11:14:03;;;;;;;6.18;2.85;;;18.10;58.60;;;;;;5050886;28;20056;-47
2024/01/16 11:16:32;;;;;;;6.53;2.70;;;17.60;55.90;;;;;;5028071;28;20452;-50
2024/01/16 11:18:58;;;;;;;7.40;3.38;;;17.60;55.80;;;;;;5018075;28;20045;-51
2024/01/16 11:21:25;;;;;;;4.45;2.90;;;17.90;56.50;;;;;;5020248;28;20108;-51
2024/01/16 11:23:51;;;;;;;6.45;2.92;;;18.10;57.40;;;;;;5031058;28;20397;-50
2024/01/16 11:26:26;;;;;;;6.47;2.85;;;18.70;56.90;;;;;;5029868;28;20022;-51
2024/01/16 11:28:54;;;;;;;6.47;2.95;;;18.30;55.40;;;;;;5031322;28;20030;-51
2024/01/16 11:31:33;;;;;;;5.50;2.72;;;18.30;55.90;;;;;;5031032;28;20026;-47
2024/01/16 11:33:59;;;;;;;5.70;3.10;;;18.30;57.10;;;;;;5030965;28;20033;-53
2024/01/16 11:36:46;;;;;;;5.28;2.92;;;18.30;55.50;;;;;;5030816;28;20536;-51
2024/01/16 11:39:18;;;;;;;6.43;3.10;;;18.40;54.60;;;;;;5030971;28;20037;-51
2024/01/16 11:42:25;;;;;;;6.60;2.65;;;18.30;56.10;;;;;;5031009;28;20029;-49
2024/01/16 11:44:50;;;;;;;4.20;2.60;;;18.20;54.10;;;;;;5045787;28;20017;-54
2024/01/16 11:47:23;;;;;;;5.47;2.55;;;18.20;54.10;;;;;;5050735;28;20025;-47
2024/01/16 11:49:51;;;;;;;4.82;2.58;;;18.10;53.20;;;;;;5050797;28;20037;-49
2024/01/16 11:52:40;;;;;;;5.75;2.78;;;18.00;55.10;;;;;;5050632;28;20016;-52
2024/01/16 11:55:25;;;;;;;6.93;2.83;;;18.20;54.60;;;;;;5050424;28;20048;-52
2024/01/16 11:58:25;;;;;;;5.18;2.88;;;18.10;54.30;;;;;;5050813;28;20029;-47
2024/01/16 12:00:52;;;;;;;4.35;2.65;;;17.90;53.40;;;;;;5038683;28;20056;-50
2024/01/16 12:03:22;;;;;;;4.95;3.00;;;17.90;53.50;;;;;;5050536;28;20045;-52
2024/01/16 12:05:58;;;;;;;6.78;2.80;;;18.20;52.70;;;;;;5050675;28;20028;-50
2024/01/16 12:08:23;;;;;;;6.70;2.50;;;18.30;54.10;;;;;;5050371;28;20035;-49
2024/01/16 12:10:49;;;;;;;5.75;2.33;;;18.40;52.30;;;;;;5050373;28;20032;-51
2024/01/16 12:13:16;;;;;;;4.53;2.28;;;18.80;51.60;;;;;;5050290;28;20052;-54
2024/01/16 12:15:42;;;;;;;4.60;2.50;;;18.30;50.90;;;;;;5050125;28;20025;-54
2024/01/16 12:18:08;;;;;;;5.00;2.33;;;18.10;52.20;;;;;;5050323;28;20102;-54
2024/01/16 12:20:35;;;;;;;5.05;2.47;;;18.30;52.10;;;;;;5050492;28;20105;-49
2024/01/16 12:23:02;;;;;;;4.97;3.05;;;18.40;51.70;;;;;;5033708;28;20026;-51
2024/01/16 12:25:30;;;;;;;6.20;3.08;;;18.50;52.20;;;;;;5028507;28;20061;-48
2024/01/16 12:28:06;;;;;;;6.45;2.88;;;18.40;50.70;;;;;;5044425;28;20021;-47
2024/01/16 12:30:37;;;;;;;4.82;2.58;;;18.70;50.30;;;;;;5026666;28;20041;-55
2024/01/16 12:33:12;;;;;;;5.90;2.97;;;18.60;52.50;;;;;;5027483;28;20026;-54
2024/01/16 12:35:42;;;;;;;4.88;2.42;;;19.30;51.30;;;;;;5025312;28;20386;-53
2024/01/16 12:38:09;;;;;;;4.32;2.13;;;19.30;49.10;;;;;;5028826;28;20029;-49